createdAt,value
2022-12-15T00:01:42.517Z,40.20
2022-12-15T00:04:27.891Z,42.00
2022-12-15T00:07:13.038Z,42.13
2022-12-15T00:09:57.803Z,39.00
2022-12-15T00:12:42.855Z,35.30
2022-12-15T00:15:28.221Z,38.22
2022-12-15T00:18:13.954Z,39.03
2022-12-15T00:20:59.300Z,38.85
2022-12-15T00:23:44.990Z,37.17
2022-12-15T00:26:30.503Z,39.60
2022-12-15T00:29:15.257Z,34.03
2022-12-15T00:32:00.292Z,35.33
2022-12-15T00:34:45.299Z,35.78
2022-12-15T00:37:30.490Z,37.30
2022-12-15T00:40:04.631Z,41.35
2022-12-15T00:42:31.234Z,38.03
2022-12-15T00:44:59.152Z,35.70
2022-12-15T00:47:25.799Z,34.03
2022-12-15T00:50:11.054Z,34.58
2022-12-15T00:52:55.779Z,34.35
2022-12-15T00:55:40.677Z,35.45
2022-12-15T00:58:25.504Z,37.72
2022-12-15T01:01:10.417Z,38.75
2022-12-15T01:03:55.263Z,39.53
2022-12-15T01:06:41.072Z,35.35
2022-12-15T01:09:28.985Z,37.63
2022-12-15T01:12:14.395Z,34.95
2022-12-15T01:14:59.955Z,38.40
2022-12-15T01:17:45.144Z,36.50
2022-12-15T01:20:34.779Z,37.55
2022-12-15T01:23:01.322Z,40.40
2022-12-15T01:25:28.024Z,35.10
2022-12-15T01:27:54.933Z,39.22
2022-12-15T01:30:26.432Z,37.72
2022-12-15T01:32:53.500Z,34.78
2022-12-15T01:35:21.078Z,36.30
2022-12-15T01:37:49.962Z,42.05
2022-12-15T01:40:37.696Z,43.08
2022-12-15T01:43:04.350Z,42.17
2022-12-15T01:45:30.665Z,37.60
2022-12-15T01:48:03.351Z,40.40
2022-12-15T01:50:32.753Z,38.75
2022-12-15T01:52:59.491Z,41.88
2022-12-15T01:55:30.230Z,37.60
2022-12-15T01:58:03.064Z,34.78
2022-12-15T02:00:35.565Z,40.33
2022-12-15T02:03:09.189Z,38.42
2022-12-15T02:05:36.766Z,36.60
2022-12-15T02:08:04.927Z,38.70
2022-12-15T02:11:00.933Z,39.22
2022-12-15T02:13:52.100Z,38.53
2022-12-15T02:16:43.509Z,35.38
2022-12-15T02:19:43.640Z,37.72
2022-12-15T02:22:47.249Z,36.90
2022-12-15T02:25:22.859Z,32.72
2022-12-15T02:28:01.364Z,35.35
2022-12-15T02:31:11.542Z,32.65
2022-12-15T02:33:46.299Z,37.67
2022-12-15T02:36:23.430Z,40.45
2022-12-15T02:38:49.854Z,35.90
2022-12-15T02:41:39.917Z,37.53
2022-12-15T02:44:17.469Z,36.53
2022-12-15T02:47:15.012Z,38.58
2022-12-15T02:50:42.074Z,37.35
2022-12-15T02:53:23.705Z,42.40
2022-12-15T02:56:08.347Z,38.95
2022-12-15T02:59:15.183Z,36.03
2022-12-15T03:01:51.984Z,44.65
2022-12-15T03:04:19.698Z,47.63
2022-12-15T03:07:00.567Z,40.58
2022-12-15T03:09:27.772Z,35.38
2022-12-15T03:11:54.575Z,44.30
2022-12-15T03:14:21.152Z,35.78
2022-12-15T03:16:47.738Z,39.40
2022-12-15T03:19:14.228Z,41.00
2022-12-15T03:21:40.639Z,39.22
2022-12-15T03:24:07.358Z,36.90
2022-12-15T03:26:33.757Z,45.22
2022-12-15T03:29:00.358Z,41.20
2022-12-15T03:31:26.932Z,38.25
2022-12-15T03:33:53.811Z,34.65
2022-12-15T03:36:20.471Z,36.38
2022-12-15T03:38:47.060Z,35.55
2022-12-15T03:41:13.457Z,39.08
2022-12-15T03:43:39.884Z,38.65
2022-12-15T03:46:06.315Z,41.55
2022-12-15T03:48:33.445Z,38.08
2022-12-15T03:50:59.844Z,36.60
2022-12-15T03:53:26.381Z,39.45
2022-12-15T03:55:52.791Z,39.70
2022-12-15T03:58:19.606Z,39.47
2022-12-15T04:00:45.984Z,36.47
2022-12-15T04:03:12.636Z,37.63
2022-12-15T04:05:39.307Z,42.67
2022-12-15T04:08:05.808Z,37.70
2022-12-15T04:10:35.315Z,42.72
2022-12-15T04:13:12.064Z,36.72
2022-12-15T04:15:39.896Z,38.90
2022-12-15T04:18:10.065Z,39.03
2022-12-15T04:20:38.062Z,36.63
2022-12-15T04:23:07.634Z,40.05
2022-12-15T04:25:53.496Z,42.92
2022-12-15T04:28:38.869Z,36.08
2022-12-15T04:31:40.412Z,38.38
2022-12-15T04:34:29.268Z,39.13
2022-12-15T04:37:14.785Z,43.08
2022-12-15T04:40:05.303Z,36.58
2022-12-15T04:42:52.469Z,35.45
2022-12-15T04:45:41.329Z,40.20
2022-12-15T04:48:26.829Z,39.72
2022-12-15T04:51:12.027Z,38.75
2022-12-15T04:53:57.137Z,36.70
2022-12-15T04:56:41.954Z,36.92
2022-12-15T04:59:26.861Z,37.15
2022-12-15T05:02:11.793Z,42.28
2022-12-15T05:04:56.984Z,40.72
2022-12-15T05:07:43.957Z,38.53
2022-12-15T05:10:29.253Z,32.88
2022-12-15T05:13:14.357Z,37.85
2022-12-15T05:15:59.187Z,56.50
2022-12-15T05:18:44.382Z,38.05
2022-12-15T05:21:29.300Z,37.03
2022-12-15T05:24:14.352Z,35.85
2022-12-15T05:27:03.354Z,35.10
2022-12-15T05:29:48.288Z,41.03
2022-12-15T05:32:14.674Z,37.08
2022-12-15T05:34:41.877Z,39.42
2022-12-15T05:37:08.266Z,39.10
2022-12-15T05:39:38.117Z,35.00
2022-12-15T05:42:04.769Z,35.85
2022-12-15T05:44:31.159Z,35.75
2022-12-15T05:46:57.551Z,37.78
2022-12-15T05:49:23.942Z,39.08
2022-12-15T05:51:50.357Z,37.10
2022-12-15T05:54:18.652Z,35.88
2022-12-15T05:56:46.832Z,35.20
2022-12-15T05:59:17.198Z,43.33
2022-12-15T06:01:43.818Z,36.45
2022-12-15T06:04:12.745Z,33.75
2022-12-15T06:06:40.014Z,30.02
2022-12-15T06:09:06.479Z,36.28
2022-12-15T06:11:32.899Z,38.55
2022-12-15T06:13:59.316Z,36.83
2022-12-15T06:16:28.169Z,36.17
2022-12-15T06:19:00.001Z,39.45
2022-12-15T06:21:29.460Z,32.08
2022-12-15T06:23:56.825Z,37.13
2022-12-15T06:26:30.873Z,36.20
2022-12-15T06:28:59.462Z,34.60
2022-12-15T06:31:26.669Z,36.28
2022-12-15T06:34:00.920Z,42.03
2022-12-15T06:36:28.685Z,38.15
2022-12-15T06:39:05.589Z,40.60
2022-12-15T06:41:32.569Z,44.10
2022-12-15T06:44:00.025Z,39.15
2022-12-15T06:46:28.100Z,44.55
2022-12-15T06:48:55.407Z,45.13
2022-12-15T06:51:23.631Z,35.85
2022-12-15T06:53:53.934Z,39.28
2022-12-15T06:56:28.926Z,42.22
2022-12-15T06:58:59.608Z,40.63
2022-12-15T07:01:26.765Z,43.08
2022-12-15T07:03:54.190Z,38.63
2022-12-15T07:06:21.084Z,37.72
2022-12-15T07:08:53.753Z,38.45
2022-12-15T07:11:21.994Z,43.38
2022-12-15T07:13:52.776Z,35.13
2022-12-15T07:16:21.070Z,39.47
2022-12-15T07:18:47.544Z,46.10
2022-12-15T07:21:14.140Z,39.92
2022-12-15T07:23:53.930Z,42.13
2022-12-15T07:26:20.949Z,34.83
2022-12-15T07:28:47.389Z,39.78
2022-12-15T07:31:13.889Z,36.33
2022-12-15T07:33:40.533Z,42.35
2022-12-15T07:36:08.436Z,45.25
2022-12-15T07:38:35.583Z,49.30
2022-12-15T07:41:04.372Z,41.22
2022-12-15T07:43:31.523Z,42.00
2022-12-15T07:45:58.941Z,34.85
2022-12-15T07:48:25.502Z,44.25
2022-12-15T07:51:02.941Z,42.95
2022-12-15T07:53:33.578Z,45.20
2022-12-15T07:56:09.576Z,43.10
2022-12-15T07:58:37.452Z,38.55
2022-12-15T08:01:07.003Z,41.05
2022-12-15T08:03:35.731Z,43.15
2022-12-15T08:06:12.214Z,43.97
2022-12-15T08:08:39.671Z,37.97
2022-12-15T08:11:07.894Z,42.55
2022-12-15T08:16:21.434Z,43.67
2022-12-15T08:18:49.032Z,35.50
2022-12-15T08:21:15.654Z,41.00
2022-12-15T08:23:42.084Z,41.17
2022-12-15T08:26:12.059Z,42.00
2022-12-15T08:28:39.961Z,37.58
2022-12-15T08:31:08.798Z,42.15
2022-12-15T08:33:36.195Z,36.53
2022-12-15T08:36:05.334Z,44.88
2022-12-15T08:38:33.376Z,37.92
2022-12-15T08:41:11.290Z,38.55
2022-12-15T08:43:44.038Z,37.70
2022-12-15T08:46:14.981Z,42.33
2022-12-15T08:48:42.122Z,40.63
2022-12-15T08:51:09.722Z,43.55
2022-12-15T08:53:36.502Z,41.80
2022-12-15T08:56:12.177Z,39.90
2022-12-15T08:58:39.599Z,47.88
2022-12-15T09:01:08.516Z,49.72
2022-12-15T09:03:36.404Z,56.67
2022-12-15T09:06:04.623Z,46.65
2022-12-15T09:08:31.528Z,47.80
2022-12-15T09:10:58.810Z,52.75
2022-12-15T09:13:25.919Z,45.67
2022-12-15T09:16:09.436Z,52.45
2022-12-15T09:18:36.562Z,45.70
2022-12-15T09:21:05.234Z,50.03
2022-12-15T09:23:32.286Z,44.08
2022-12-15T09:26:07.406Z,42.65
2022-12-15T09:28:34.788Z,43.30
2022-12-15T09:31:09.508Z,41.40
2022-12-15T09:33:36.797Z,45.00
2022-12-15T09:36:04.699Z,46.88
2022-12-15T09:38:33.852Z,39.10
2022-12-15T09:41:15.329Z,44.38
2022-12-15T09:43:52.441Z,43.85
2022-12-15T09:46:34.871Z,39.65
2022-12-15T09:49:06.393Z,42.55
2022-12-15T09:51:39.216Z,47.15
2022-12-15T09:54:06.771Z,66.95
2022-12-15T09:56:42.433Z,38.75
2022-12-15T09:59:29.034Z,42.10
2022-12-15T10:02:13.982Z,46.60
2022-12-15T10:04:47.403Z,68.00
2022-12-15T10:07:39.562Z,34.35
2022-12-15T10:10:51.098Z,37.13
2022-12-15T10:13:27.374Z,34.63
2022-12-15T10:16:00.724Z,36.25
2022-12-15T10:18:37.274Z,38.78
2022-12-15T10:21:03.982Z,38.20
2022-12-15T10:23:34.266Z,34.72
2022-12-15T10:26:21.027Z,32.92
2022-12-15T10:29:13.091Z,38.53
2022-12-15T10:31:53.244Z,34.15
2022-12-15T10:34:33.669Z,34.50
2022-12-15T10:37:00.330Z,35.00
2022-12-15T10:39:42.815Z,38.17
2022-12-15T10:42:11.492Z,43.38
2022-12-15T10:44:41.395Z,35.28
2022-12-15T10:47:31.582Z,41.83
2022-12-15T10:50:24.774Z,34.45
2022-12-15T10:52:51.921Z,35.80
2022-12-15T10:55:38.189Z,35.83
2022-12-15T10:58:17.697Z,32.47
2022-12-15T11:00:46.612Z,33.17
2022-12-15T11:03:26.448Z,30.20
2022-12-15T11:05:55.205Z,37.55
2022-12-15T11:08:22.979Z,32.63
2022-12-15T11:11:14.220Z,31.20
2022-12-15T11:13:41.965Z,29.73
2022-12-15T11:16:17.173Z,36.65
2022-12-15T11:18:56.461Z,33.45
2022-12-15T11:21:27.858Z,32.13
2022-12-15T11:24:13.747Z,34.65
2022-12-15T11:26:56.702Z,33.85
2022-12-15T11:29:23.560Z,33.50
2022-12-15T11:31:52.323Z,34.47
2022-12-15T11:34:25.975Z,33.20
2022-12-15T11:40:08.611Z,31.75
2022-12-15T11:43:00.663Z,30.58
2022-12-15T11:45:47.425Z,33.22
2022-12-15T11:48:19.481Z,35.72
2022-12-15T11:50:56.093Z,32.72
2022-12-15T11:53:41.071Z,34.22
2022-12-15T11:56:33.855Z,31.40
2022-12-15T11:59:28.031Z,33.60
2022-12-15T12:02:18.212Z,34.47
2022-12-15T12:05:01.313Z,31.27
2022-12-15T12:07:45.123Z,30.60
2022-12-15T12:10:20.849Z,33.22
2022-12-15T12:13:30.615Z,35.00
2022-12-15T12:16:29.231Z,43.08
2022-12-15T12:19:02.701Z,29.23
2022-12-15T12:21:36.933Z,32.55
2022-12-15T12:24:30.355Z,35.17
2022-12-15T12:27:16.592Z,39.17
2022-12-15T12:29:51.237Z,42.47
2022-12-15T12:32:36.924Z,38.50
2022-12-15T12:35:30.848Z,42.85
2022-12-15T12:38:07.672Z,33.90
2022-12-15T12:40:51.231Z,29.52
2022-12-15T12:43:40.235Z,33.97
2022-12-15T12:46:15.081Z,32.25
2022-12-15T12:48:44.128Z,31.50
2022-12-15T12:51:38.991Z,30.40
2022-12-15T12:54:37.044Z,31.30
2022-12-15T12:57:12.563Z,41.40
2022-12-15T12:59:43.717Z,42.58
2022-12-15T13:02:22.304Z,33.33
2022-12-15T13:05:05.032Z,39.47
2022-12-15T13:07:39.065Z,31.45
2022-12-15T13:10:18.095Z,37.33
2022-12-15T13:12:53.567Z,33.42
2022-12-15T13:15:29.314Z,31.05
2022-12-15T13:18:04.803Z,34.70
2022-12-15T13:20:33.695Z,34.55
2022-12-15T13:23:22.121Z,30.92
2022-12-15T13:25:57.517Z,31.48
2022-12-15T13:28:43.147Z,30.85
2022-12-15T13:31:21.775Z,30.42
2022-12-15T13:33:51.213Z,29.65
2022-12-15T13:36:36.631Z,33.25
2022-12-15T13:39:23.247Z,39.03
2022-12-15T13:42:32.589Z,33.22
2022-12-15T13:44:48.689Z,26.27
2022-12-15T13:47:22.329Z,28.00
2022-12-15T13:50:02.265Z,31.88
2022-12-15T13:53:18.798Z,33.47
2022-12-15T13:55:52.480Z,36.97
2022-12-15T13:58:21.613Z,33.97
2022-12-15T14:00:51.942Z,34.50
2022-12-15T14:03:18.415Z,32.90
2022-12-15T14:05:50.142Z,38.78
2022-12-15T14:08:19.002Z,37.65
2022-12-15T14:10:50.865Z,60.20
2022-12-15T14:13:24.400Z,69.80
2022-12-15T14:15:53.023Z,46.53
2022-12-15T14:18:32.322Z,40.72
2022-12-15T14:21:00.880Z,45.35
2022-12-15T14:23:52.509Z,49.28
2022-12-15T14:26:30.920Z,48.08
2022-12-15T14:29:06.062Z,45.13
2022-12-15T14:31:33.055Z,42.60
2022-12-15T14:34:11.964Z,45.00
2022-12-15T14:36:41.770Z,52.08
2022-12-15T14:39:19.485Z,54.65
2022-12-15T14:41:50.552Z,53.95
2022-12-15T14:44:31.537Z,53.30
2022-12-15T14:47:08.426Z,50.15
2022-12-15T14:49:45.681Z,45.25
2022-12-15T14:52:30.430Z,46.42
2022-12-15T14:54:59.849Z,46.88
2022-12-15T14:57:29.200Z,47.25
2022-12-15T14:59:55.790Z,45.88
2022-12-15T15:02:26.910Z,44.75
2022-12-15T15:05:04.071Z,52.08
2022-12-15T15:07:35.213Z,54.60
2022-12-15T15:10:03.853Z,71.00
2022-12-15T15:12:47.134Z,79.32
2022-12-15T15:15:19.528Z,73.15
2022-12-15T15:17:52.826Z,70.72
2022-12-15T15:20:27.035Z,71.82
2022-12-15T15:23:22.895Z,68.63
2022-12-15T15:25:50.697Z,75.22
2022-12-15T15:28:20.055Z,64.75
2022-12-15T15:30:56.430Z,65.93
2022-12-15T15:33:27.186Z,64.45
2022-12-15T15:35:59.557Z,64.93
2022-12-15T15:38:35.022Z,79.68
2022-12-15T15:41:15.557Z,69.88
2022-12-15T15:43:42.666Z,61.85
2022-12-15T15:46:18.158Z,61.22
2022-12-15T15:48:48.804Z,53.55
2022-12-15T15:51:15.296Z,51.97
2022-12-15T15:53:41.846Z,56.97
2022-12-15T15:56:16.105Z,64.95
2022-12-15T15:58:46.637Z,67.90
2022-12-15T16:01:13.850Z,64.18
2022-12-15T16:03:40.936Z,59.67
2022-12-15T16:06:19.996Z,56.30
2022-12-15T16:08:53.761Z,65.45
2022-12-15T16:11:22.149Z,67.63
2022-12-15T16:13:48.905Z,64.00
2022-12-15T16:16:19.052Z,58.60
2022-12-15T16:18:46.032Z,59.47
2022-12-15T16:21:16.803Z,55.08
2022-12-15T16:23:45.977Z,55.80
2022-12-15T16:26:16.645Z,51.95
2022-12-15T16:28:43.309Z,66.22
2022-12-15T16:31:24.581Z,62.90
2022-12-15T16:33:51.117Z,69.03
2022-12-15T16:36:17.727Z,91.55
2022-12-15T16:38:44.377Z,84.20
2022-12-15T16:41:15.474Z,87.07
2022-12-15T16:43:47.940Z,78.60
2022-12-15T16:46:15.404Z,78.97
2022-12-15T16:48:42.849Z,76.53
2022-12-15T16:51:18.231Z,74.13
2022-12-15T16:53:45.560Z,71.13
2022-12-15T16:56:14.324Z,71.50
2022-12-15T16:58:41.775Z,76.20
2022-12-15T17:01:10.056Z,56.67
2022-12-15T17:03:36.687Z,58.55
2022-12-15T17:06:06.494Z,58.63
2022-12-15T17:08:44.898Z,56.72
2022-12-15T17:11:18.394Z,57.40
2022-12-15T17:16:14.937Z,68.47
2022-12-15T17:18:42.970Z,68.45
2022-12-15T17:21:15.796Z,67.78
2022-12-15T17:23:44.790Z,75.20
2022-12-15T17:26:27.459Z,58.50
2022-12-15T17:31:23.741Z,54.30
2022-12-15T17:33:50.369Z,57.97
2022-12-15T17:36:27.633Z,57.65
2022-12-15T17:39:03.201Z,63.72
2022-12-15T17:41:58.046Z,59.72
2022-12-15T17:44:36.946Z,55.72
2022-12-15T17:47:06.179Z,64.13
2022-12-15T17:49:36.023Z,65.80
2022-12-15T17:52:18.998Z,57.55
2022-12-15T17:54:45.441Z,55.13
2022-12-15T17:57:12.505Z,66.05
2022-12-15T17:59:39.028Z,61.97
2022-12-15T18:02:06.032Z,60.50
2022-12-15T18:04:32.591Z,61.67
2022-12-15T18:07:02.148Z,57.55
2022-12-15T18:09:29.381Z,62.88
2022-12-15T18:11:55.785Z,59.17
2022-12-15T18:14:22.949Z,65.47
2022-12-15T18:16:49.749Z,71.47
2022-12-15T18:19:16.232Z,76.45
2022-12-15T18:21:42.898Z,74.20
2022-12-15T18:24:17.297Z,72.68
2022-12-15T18:26:44.115Z,73.93
2022-12-15T18:29:17.632Z,77.88
2022-12-15T18:31:46.933Z,72.28
2022-12-15T18:34:18.278Z,77.38
2022-12-15T18:36:44.984Z,73.97
2022-12-15T18:39:26.252Z,72.32
2022-12-15T18:41:55.108Z,75.00
2022-12-15T18:44:26.350Z,80.28
2022-12-15T18:46:53.294Z,89.07
2022-12-15T18:49:22.199Z,85.32
2022-12-15T18:51:48.784Z,76.32
2022-12-15T18:54:21.276Z,64.32
2022-12-15T18:56:47.979Z,69.43
2022-12-15T18:59:16.438Z,65.07
2022-12-15T19:01:48.180Z,84.28
2022-12-15T19:04:15.320Z,77.90
2022-12-15T19:06:42.342Z,73.97
2022-12-15T19:09:18.651Z,80.18
2022-12-15T19:12:16.559Z,78.70
2022-12-15T19:14:43.863Z,75.57
2022-12-15T19:17:36.693Z,81.43
2022-12-15T19:20:24.681Z,75.05
2022-12-15T19:22:52.196Z,73.00
2022-12-15T19:25:26.637Z,87.38
2022-12-15T19:27:59.683Z,75.68
2022-12-15T19:30:36.941Z,73.72
2022-12-15T19:33:07.964Z,79.72
2022-12-15T19:35:34.779Z,82.45
2022-12-15T19:38:03.177Z,78.50
2022-12-15T19:40:32.457Z,74.47
2022-12-15T19:43:00.272Z,77.45
2022-12-15T19:45:30.062Z,70.30
2022-12-15T19:47:56.616Z,73.45
2022-12-15T19:50:27.458Z,71.40
2022-12-15T19:53:02.254Z,80.18
2022-12-15T19:55:32.973Z,78.40
2022-12-15T19:57:59.790Z,73.97
2022-12-15T20:00:27.301Z,80.50
2022-12-15T20:02:55.017Z,78.03
2022-12-15T20:05:24.494Z,70.18
2022-12-15T20:07:54.914Z,82.47
2022-12-15T20:10:31.771Z,76.72
2022-12-15T20:13:00.192Z,71.82
2022-12-15T20:15:26.688Z,77.68
2022-12-15T20:17:57.216Z,88.88
2022-12-15T20:20:27.035Z,79.30
2022-12-15T20:22:56.559Z,86.53
2022-12-15T20:25:27.155Z,81.72
2022-12-15T20:27:54.238Z,90.45
2022-12-15T20:30:26.831Z,83.38
2022-12-15T20:32:54.630Z,73.63
2022-12-15T20:35:22.498Z,88.75
2022-12-15T20:37:50.093Z,81.80
2022-12-15T20:40:28.190Z,86.95
2022-12-15T20:42:56.068Z,87.60
2022-12-15T20:45:26.690Z,86.15
2022-12-15T20:47:55.783Z,90.20
2022-12-15T20:50:49.028Z,89.05
2022-12-15T20:53:25.320Z,95.68
2022-12-15T20:55:53.731Z,84.30
2022-12-15T20:58:21.017Z,89.18
2022-12-15T21:00:49.318Z,89.95
2022-12-15T21:03:19.818Z,87.43
2022-12-15T21:05:50.611Z,83.78
2022-12-15T21:08:25.930Z,91.32
2022-12-15T21:10:54.167Z,85.95
2022-12-15T21:13:31.543Z,83.68
2022-12-15T21:15:58.334Z,87.45
2022-12-15T21:21:29.446Z,86.25
2022-12-15T21:23:57.793Z,79.43
2022-12-15T21:26:28.972Z,83.72
2022-12-15T21:28:59.067Z,79.10
2022-12-15T21:31:26.084Z,80.53
2022-12-15T21:33:52.724Z,73.85
2022-12-15T21:36:22.001Z,78.95
2022-12-15T21:38:51.813Z,86.20
2022-12-15T21:41:22.089Z,75.20
2022-12-15T21:43:49.614Z,76.55
2022-12-15T21:46:20.537Z,67.47
2022-12-15T21:49:08.329Z,68.28
2022-12-15T21:51:37.709Z,77.82
2022-12-15T21:54:05.524Z,68.82
2022-12-15T21:56:32.157Z,71.78
2022-12-15T21:58:59.054Z,77.70
2022-12-15T22:01:29.761Z,79.32
2022-12-15T22:03:58.502Z,79.90
2022-12-15T22:06:27.842Z,81.20
2022-12-15T22:09:00.941Z,81.10
2022-12-15T22:11:30.051Z,76.50
2022-12-15T22:13:58.716Z,77.43
2022-12-15T22:16:25.345Z,84.38
2022-12-15T22:18:56.837Z,72.38
2022-12-15T22:21:24.259Z,71.70
2022-12-15T22:23:51.279Z,68.13
2022-12-15T22:26:31.198Z,67.20
2022-12-15T22:29:00.981Z,68.97
2022-12-15T22:31:28.248Z,65.07
2022-12-15T22:33:55.709Z,62.17
2022-12-15T22:36:22.141Z,68.13
2022-12-15T22:38:48.543Z,64.70
2022-12-15T22:41:22.306Z,70.35
2022-12-15T22:43:55.019Z,65.07
2022-12-15T22:46:24.055Z,78.20
2022-12-15T22:48:52.936Z,69.13
2022-12-15T22:51:21.748Z,77.30
2022-12-15T22:53:49.227Z,85.78
2022-12-15T22:56:27.723Z,80.35
2022-12-15T22:59:00.841Z,78.25
2022-12-15T23:01:27.972Z,93.70
2022-12-15T23:03:54.646Z,87.05
2022-12-15T23:06:23.605Z,95.85
2022-12-15T23:08:55.994Z,100.47
2022-12-15T23:11:39.651Z,88.70
2022-12-15T23:14:09.592Z,86.28
2022-12-15T23:16:37.310Z,83.10
2022-12-15T23:19:04.542Z,80.50
2022-12-15T23:21:31.100Z,70.45
2022-12-15T23:23:57.833Z,66.95
2022-12-15T23:26:26.027Z,79.38
2022-12-15T23:28:53.860Z,79.25
2022-12-15T23:31:22.095Z,71.13
2022-12-15T23:33:48.601Z,74.22
2022-12-15T23:36:16.135Z,70.85
2022-12-15T23:38:42.848Z,69.97
2022-12-15T23:41:15.672Z,71.82
2022-12-15T23:43:42.096Z,67.80
2022-12-15T23:46:08.677Z,60.13
2022-12-15T23:48:38.601Z,65.90
2022-12-15T23:51:08.678Z,65.78
2022-12-15T23:53:36.397Z,62.92
2022-12-15T23:56:10.780Z,60.55
2022-12-15T23:58:39.416Z,60.92
